createdAt,value
2022-11-14T00:01:13.394Z,2.14
2022-11-14T00:03:58.891Z,2.16
2022-11-14T00:06:44.019Z,2.28
2022-11-14T00:09:29.905Z,2.68
2022-11-14T00:12:15.201Z,3.05
2022-11-14T00:15:00.736Z,2.91
2022-11-14T00:17:45.911Z,2.71
2022-11-14T00:20:32.241Z,2.67
2022-11-14T00:23:18.038Z,2.61
2022-11-14T00:26:03.184Z,2.58
2022-11-14T00:28:48.067Z,2.84
2022-11-14T00:31:33.429Z,2.94
2022-11-14T00:34:18.736Z,2.83
2022-11-14T00:37:04.173Z,2.75
2022-11-14T00:39:49.296Z,2.82
2022-11-14T00:42:34.869Z,3.02
2022-11-14T00:45:20.181Z,3.28
2022-11-14T00:48:05.593Z,3.41
2022-11-14T00:50:50.912Z,3.51
2022-11-14T00:53:36.357Z,3.65
2022-11-14T00:56:21.539Z,3.83
2022-11-14T00:59:06.855Z,3.83
2022-11-14T01:01:57.571Z,3.87
2022-11-14T01:04:43.038Z,3.77
2022-11-14T01:07:28.970Z,3.86
2022-11-14T01:10:14.770Z,3.98
2022-11-14T01:12:59.888Z,3.93
2022-11-14T01:15:47.557Z,3.99
2022-11-14T01:18:32.934Z,3.95
2022-11-14T01:21:18.435Z,4.05
2022-11-14T01:24:04.124Z,4.22
2022-11-14T01:26:49.250Z,4.12
2022-11-14T01:29:34.478Z,4.10
2022-11-14T01:32:19.741Z,4.26
2022-11-14T01:35:05.207Z,4.41
2022-11-14T01:37:50.480Z,4.29
2022-11-14T01:40:41.957Z,4.10
2022-11-14T01:43:33.356Z,4.12
2022-11-14T01:46:26.172Z,3.97
2022-11-14T01:49:34.458Z,3.73
2022-11-14T01:52:36.232Z,3.70
2022-11-14T01:55:21.305Z,3.69
2022-11-14T01:58:06.877Z,3.82
2022-11-14T02:00:51.828Z,3.82
2022-11-14T02:03:40.229Z,3.70
2022-11-14T02:06:29.148Z,3.60
2022-11-14T02:09:14.970Z,3.75
2022-11-14T02:12:02.529Z,3.68
2022-11-14T02:14:52.302Z,3.66
2022-11-14T02:17:37.679Z,3.92
2022-11-14T02:20:28.512Z,4.06
2022-11-14T02:23:13.744Z,4.28
2022-11-14T02:25:59.622Z,4.24
2022-11-14T02:28:45.448Z,4.25
2022-11-14T02:31:30.603Z,4.27
2022-11-14T02:34:19.970Z,4.31
2022-11-14T02:37:06.059Z,4.29
2022-11-14T02:39:51.361Z,4.26
2022-11-14T02:42:36.659Z,4.31
2022-11-14T02:45:21.972Z,4.36
2022-11-14T02:48:08.497Z,4.39
2022-11-14T02:50:53.588Z,4.38
2022-11-14T02:53:38.789Z,4.37
2022-11-14T02:56:24.237Z,4.43
2022-11-14T02:59:09.331Z,4.41
2022-11-14T03:01:54.447Z,4.38
2022-11-14T03:04:39.741Z,4.37
2022-11-14T03:07:25.056Z,4.42
2022-11-14T03:10:11.256Z,4.41
2022-11-14T03:12:57.413Z,4.41
2022-11-14T03:15:42.595Z,4.41
2022-11-14T03:18:28.090Z,4.40
2022-11-14T03:21:19.468Z,4.45
2022-11-14T03:24:04.770Z,4.44
2022-11-14T03:26:49.992Z,4.45
2022-11-14T03:29:35.318Z,4.51
2022-11-14T03:32:20.564Z,4.57
2022-11-14T03:35:06.248Z,4.59
2022-11-14T03:37:55.235Z,4.62
2022-11-14T03:40:41.562Z,4.62
2022-11-14T03:43:30.183Z,4.60
2022-11-14T03:46:15.225Z,4.66
2022-11-14T03:49:00.522Z,4.60
2022-11-14T03:51:45.695Z,4.56
2022-11-14T03:54:31.189Z,4.59
2022-11-14T03:57:16.309Z,4.53
2022-11-14T04:00:01.306Z,4.61
2022-11-14T04:02:47.602Z,4.60
2022-11-14T04:05:32.801Z,4.62
2022-11-14T04:08:18.185Z,4.66
2022-11-14T04:11:03.257Z,4.62
2022-11-14T04:13:48.615Z,4.61
2022-11-14T04:16:34.030Z,4.61
2022-11-14T04:19:19.275Z,4.68
2022-11-14T04:22:04.775Z,4.71
2022-11-14T04:24:49.743Z,4.62
2022-11-14T04:27:35.106Z,4.55
2022-11-14T04:30:20.336Z,4.60
2022-11-14T04:33:05.739Z,4.59
2022-11-14T04:35:51.104Z,4.49
2022-11-14T04:38:36.597Z,4.57
2022-11-14T04:41:21.677Z,4.58
2022-11-14T04:44:06.972Z,4.57
2022-11-14T04:46:52.271Z,4.59
2022-11-14T04:49:37.514Z,4.65
2022-11-14T04:52:22.930Z,4.61
2022-11-14T04:55:08.604Z,4.62
2022-11-14T04:57:58.014Z,4.59
2022-11-14T05:00:43.216Z,4.53
2022-11-14T05:03:29.322Z,4.45
2022-11-14T05:06:14.355Z,4.46
2022-11-14T05:08:59.603Z,4.45
2022-11-14T05:11:44.824Z,4.50
2022-11-14T05:14:31.730Z,4.47
2022-11-14T05:17:17.009Z,4.48
2022-11-14T05:20:02.236Z,4.46
2022-11-14T05:22:47.472Z,4.50
2022-11-14T05:25:32.637Z,4.52
2022-11-14T05:28:18.168Z,4.50
2022-11-14T05:31:08.856Z,4.47
2022-11-14T05:33:53.900Z,4.47
2022-11-14T05:36:39.228Z,4.44
2022-11-14T05:39:24.572Z,4.47
2022-11-14T05:42:09.711Z,4.35
2022-11-14T05:44:54.995Z,4.35
2022-11-14T05:47:39.974Z,4.35
2022-11-14T05:50:25.403Z,4.42
2022-11-14T05:53:10.716Z,4.45
2022-11-14T05:55:59.992Z,4.49
2022-11-14T05:58:44.908Z,4.51
2022-11-14T06:01:30.165Z,4.48
2022-11-14T06:04:15.399Z,4.52
2022-11-14T06:07:00.805Z,4.56
2022-11-14T06:09:45.983Z,4.49
2022-11-14T06:12:32.233Z,4.47
2022-11-14T06:15:17.582Z,4.47
2022-11-14T06:18:02.637Z,4.46
2022-11-14T06:20:47.974Z,4.46
2022-11-14T06:23:34.017Z,4.39
2022-11-14T06:26:30.216Z,4.38
2022-11-14T06:29:15.053Z,4.42
2022-11-14T06:32:00.188Z,4.38
2022-11-14T06:34:45.660Z,4.37
2022-11-14T06:37:33.648Z,4.38
2022-11-14T06:40:19.200Z,4.40
2022-11-14T06:43:04.304Z,4.41
2022-11-14T06:45:49.514Z,4.45
2022-11-14T06:48:35.758Z,4.46
2022-11-14T06:51:20.899Z,4.46
2022-11-14T06:54:06.257Z,4.50
2022-11-14T06:56:51.518Z,4.54
2022-11-14T06:59:37.167Z,4.43
2022-11-14T07:02:22.283Z,4.41
2022-11-14T07:05:07.528Z,4.42
2022-11-14T07:07:52.718Z,4.40
2022-11-14T07:10:38.067Z,4.36
2022-11-14T07:13:23.326Z,4.31
2022-11-14T07:16:08.430Z,4.41
2022-11-14T07:18:53.547Z,4.40
2022-11-14T07:21:39.401Z,4.43
2022-11-14T07:24:24.680Z,4.49
2022-11-14T07:27:12.767Z,4.55
2022-11-14T07:29:57.609Z,4.71
2022-11-14T07:32:43.176Z,4.77
2022-11-14T07:35:28.130Z,4.72
2022-11-14T07:38:13.396Z,4.76
2022-11-14T07:41:00.138Z,4.76
2022-11-14T07:43:46.250Z,4.79
2022-11-14T07:46:31.310Z,4.77
2022-11-14T07:49:16.936Z,4.78
2022-11-14T07:52:02.060Z,4.75
2022-11-14T07:54:47.312Z,4.81
2022-11-14T07:57:36.834Z,4.78
2022-11-14T08:00:25.671Z,4.91
2022-11-14T08:03:11.016Z,4.86
2022-11-14T08:06:06.578Z,4.93
2022-11-14T08:08:51.718Z,4.94
2022-11-14T08:12:03.189Z,5.05
2022-11-14T08:14:48.232Z,5.07
2022-11-14T08:17:33.180Z,5.15
2022-11-14T08:20:18.548Z,5.23
2022-11-14T08:23:05.858Z,5.24
2022-11-14T08:25:51.348Z,5.13
2022-11-14T08:28:36.892Z,5.14
2022-11-14T08:31:22.376Z,5.23
2022-11-14T08:34:07.698Z,5.37
2022-11-14T08:36:52.884Z,5.41
2022-11-14T08:39:38.075Z,5.42
2022-11-14T08:42:23.192Z,5.28
2022-11-14T08:45:08.596Z,5.17
2022-11-14T08:47:54.321Z,5.30
2022-11-14T08:50:40.012Z,5.28
2022-11-14T08:53:25.086Z,5.17
2022-11-14T08:56:11.015Z,5.23
2022-11-14T08:58:56.311Z,5.14
2022-11-14T09:01:41.629Z,5.01
2022-11-14T09:04:26.909Z,4.99
2022-11-14T09:07:12.297Z,5.26
2022-11-14T09:09:57.281Z,5.08
2022-11-14T09:12:42.295Z,5.24
2022-11-14T09:15:31.137Z,5.33
2022-11-14T09:18:16.354Z,5.50
2022-11-14T09:21:03.857Z,5.35
2022-11-14T09:23:49.283Z,5.10
2022-11-14T09:26:34.566Z,5.03
2022-11-14T09:29:19.822Z,4.72
2022-11-14T09:32:05.023Z,4.73
2022-11-14T09:34:50.468Z,4.83
2022-11-14T09:37:35.869Z,4.77
2022-11-14T09:40:21.000Z,4.71
2022-11-14T09:43:27.380Z,4.74
2022-11-14T09:46:25.599Z,4.63
2022-11-14T09:49:33.136Z,4.75
2022-11-14T09:52:47.550Z,4.68
2022-11-14T09:55:37.135Z,4.75
2022-11-14T09:58:22.511Z,4.73
2022-11-14T10:01:26.761Z,4.74
2022-11-14T10:04:27.796Z,4.97
2022-11-14T10:07:31.316Z,5.17
2022-11-14T10:10:16.671Z,5.15
2022-11-14T10:13:14.416Z,5.20
2022-11-14T10:16:07.879Z,5.11
2022-11-14T10:19:06.142Z,5.43
2022-11-14T10:22:00.643Z,5.49
2022-11-14T10:24:55.157Z,5.39
2022-11-14T10:28:00.956Z,5.45
2022-11-14T10:31:19.836Z,5.50
2022-11-14T10:34:47.237Z,5.45
2022-11-14T10:37:40.342Z,5.55
2022-11-14T10:40:48.598Z,5.66
2022-11-14T10:43:42.115Z,5.70
2022-11-14T10:46:41.862Z,5.79
2022-11-14T10:49:31.206Z,5.84
2022-11-14T10:52:20.091Z,5.93
2022-11-14T10:55:17.512Z,6.18
2022-11-14T10:58:02.515Z,6.14
2022-11-14T11:00:47.965Z,6.04
2022-11-14T11:03:44.622Z,6.09
2022-11-14T11:06:30.014Z,6.24
2022-11-14T11:09:46.166Z,6.18
2022-11-14T11:12:34.835Z,6.37
2022-11-14T11:15:20.371Z,6.46
2022-11-14T11:18:33.620Z,6.47
2022-11-14T11:21:21.956Z,6.15
2022-11-14T11:24:08.888Z,6.06
2022-11-14T11:27:27.457Z,5.82
2022-11-14T11:30:25.510Z,5.80
2022-11-14T11:33:32.359Z,5.76
2022-11-14T11:36:20.336Z,5.89
2022-11-14T11:39:05.796Z,5.98
2022-11-14T11:42:10.901Z,6.06
2022-11-14T11:45:01.594Z,6.01
2022-11-14T11:48:01.480Z,6.16
2022-11-14T11:50:48.215Z,6.34
2022-11-14T11:53:39.972Z,6.72
2022-11-14T11:56:29.981Z,6.82
2022-11-14T11:59:15.214Z,6.75
2022-11-14T12:02:22.217Z,6.31
2022-11-14T12:05:13.651Z,6.51
2022-11-14T12:08:04.474Z,6.89
2022-11-14T12:10:51.028Z,6.43
2022-11-14T12:13:45.735Z,6.33
2022-11-14T12:17:03.153Z,6.35
2022-11-14T12:20:21.379Z,6.31
2022-11-14T12:23:12.445Z,6.41
2022-11-14T12:26:13.597Z,6.27
2022-11-14T12:29:40.025Z,6.40
2022-11-14T12:32:41.292Z,6.31
2022-11-14T12:35:31.476Z,6.36
2022-11-14T12:38:21.152Z,6.37
2022-11-14T12:41:07.571Z,6.65
2022-11-14T12:43:53.301Z,6.51
2022-11-14T12:47:21.899Z,6.53
2022-11-14T12:50:29.043Z,6.60
2022-11-14T12:53:38.555Z,6.79
2022-11-14T12:56:56.462Z,6.47
2022-11-14T12:59:52.341Z,6.55
2022-11-14T13:02:37.582Z,6.54
2022-11-14T13:05:23.248Z,6.59
2022-11-14T13:08:27.230Z,6.60
2022-11-14T13:11:51.253Z,6.55
2022-11-14T13:15:10.483Z,6.82
2022-11-14T13:18:38.835Z,6.63
2022-11-14T13:21:48.135Z,6.58
2022-11-14T13:24:58.365Z,6.61
2022-11-14T13:28:06.606Z,6.44
2022-11-14T13:31:14.898Z,6.40
2022-11-14T13:34:00.248Z,6.33
2022-11-14T13:36:58.612Z,6.35
2022-11-14T13:40:04.356Z,6.31
2022-11-14T13:43:05.784Z,6.38
2022-11-14T13:45:51.057Z,6.40
2022-11-14T13:48:51.272Z,6.38
2022-11-14T13:51:43.401Z,6.38
2022-11-14T13:54:29.462Z,6.39
2022-11-14T13:57:23.835Z,6.48
2022-11-14T14:00:20.451Z,6.50
2022-11-14T14:03:21.010Z,6.58
2022-11-14T14:06:18.133Z,6.60
2022-11-14T14:09:15.392Z,6.56
2022-11-14T14:12:06.610Z,6.60
2022-11-14T14:15:36.316Z,6.57
2022-11-14T14:18:35.912Z,6.62
2022-11-14T14:21:35.261Z,6.63
2022-11-14T14:24:36.015Z,6.59
2022-11-14T14:27:21.174Z,6.57
2022-11-14T14:30:18.555Z,6.60
2022-11-14T14:33:14.132Z,6.53
2022-11-14T14:35:59.379Z,6.56
2022-11-14T14:38:45.246Z,6.55
2022-11-14T14:41:32.423Z,6.55
2022-11-14T14:44:37.124Z,6.58
2022-11-14T14:47:36.463Z,6.63
2022-11-14T14:50:26.900Z,6.63
2022-11-14T14:53:24.307Z,6.65
2022-11-14T14:56:28.700Z,6.66
2022-11-14T14:59:24.946Z,6.67
2022-11-14T15:02:22.464Z,6.74
2022-11-14T15:05:07.701Z,6.69
2022-11-14T15:07:59.078Z,6.75
2022-11-14T15:10:44.868Z,6.82
2022-11-14T15:13:31.112Z,6.77
2022-11-14T15:16:16.544Z,6.82
2022-11-14T15:19:01.889Z,6.85
2022-11-14T15:22:21.071Z,6.88
2022-11-14T15:25:05.956Z,6.80
2022-11-14T15:27:54.510Z,6.83
2022-11-14T15:30:39.719Z,6.82
2022-11-14T15:33:28.918Z,6.85
2022-11-14T15:36:17.862Z,6.93
2022-11-14T15:39:27.479Z,6.98
2022-11-14T15:42:19.978Z,6.97
2022-11-14T15:45:24.923Z,7.01
2022-11-14T15:48:16.394Z,7.02
2022-11-14T15:51:01.459Z,6.98
2022-11-14T15:53:50.146Z,7.02
2022-11-14T15:56:35.211Z,7.06
2022-11-14T15:59:20.442Z,7.03
2022-11-14T16:02:17.435Z,7.04
2022-11-14T16:05:04.522Z,7.02
2022-11-14T16:07:49.607Z,7.03
2022-11-14T16:10:34.991Z,7.05
2022-11-14T16:13:20.158Z,7.07
2022-11-14T16:16:05.625Z,7.09
2022-11-14T16:18:50.783Z,7.09
2022-11-14T16:21:37.170Z,7.06
2022-11-14T16:24:23.610Z,7.04
2022-11-14T16:27:09.086Z,7.08
2022-11-14T16:29:54.305Z,7.04
2022-11-14T16:32:40.376Z,7.10
2022-11-14T16:35:27.103Z,7.07
2022-11-14T16:38:13.629Z,7.07
2022-11-14T16:41:00.371Z,7.06
2022-11-14T16:43:45.617Z,7.00
2022-11-14T16:46:30.983Z,6.91
2022-11-14T16:49:17.474Z,6.88
2022-11-14T16:52:07.103Z,6.80
2022-11-14T16:54:52.403Z,6.91
2022-11-14T16:57:38.728Z,6.90
2022-11-14T17:00:24.567Z,6.90
2022-11-14T17:03:10.078Z,6.94
2022-11-14T17:05:55.247Z,6.95
2022-11-14T17:08:40.515Z,6.99
2022-11-14T17:11:26.402Z,7.02
2022-11-14T17:14:12.613Z,7.06
2022-11-14T17:17:04.295Z,7.11
2022-11-14T17:19:49.691Z,7.07
2022-11-14T17:22:35.383Z,7.07
2022-11-14T17:25:21.027Z,7.04
2022-11-14T17:28:06.217Z,7.06
2022-11-14T17:30:51.297Z,7.09
2022-11-14T17:33:37.070Z,7.08
2022-11-14T17:36:23.490Z,7.07
2022-11-14T17:39:08.571Z,7.07
2022-11-14T17:41:53.843Z,7.12
2022-11-14T17:44:39.149Z,7.12
2022-11-14T17:47:24.108Z,7.15
2022-11-14T17:50:09.861Z,7.20
2022-11-14T17:52:55.073Z,7.26
2022-11-14T17:55:40.318Z,7.28
2022-11-14T17:58:28.660Z,7.35
2022-11-14T18:01:17.039Z,7.41
2022-11-14T18:04:06.078Z,7.40
2022-11-14T18:06:53.547Z,7.48
2022-11-14T18:09:39.263Z,7.52
2022-11-14T18:12:25.240Z,7.56
2022-11-14T18:15:11.044Z,7.62
2022-11-14T18:17:57.063Z,7.70
2022-11-14T18:20:42.784Z,7.77
2022-11-14T18:23:28.853Z,7.83
2022-11-14T18:26:17.282Z,7.87
2022-11-14T18:29:03.044Z,7.96
2022-11-14T18:31:48.449Z,7.97
2022-11-14T18:34:36.919Z,8.02
2022-11-14T18:37:22.572Z,8.04
2022-11-14T18:40:12.094Z,8.02
2022-11-14T18:43:01.105Z,8.04
2022-11-14T18:45:46.318Z,8.12
2022-11-14T18:48:31.708Z,8.19
2022-11-14T18:51:20.328Z,8.34
2022-11-14T18:54:05.363Z,8.35
2022-11-14T18:56:51.130Z,8.32
2022-11-14T18:59:36.446Z,8.27
2022-11-14T19:02:21.679Z,8.26
2022-11-14T19:05:07.243Z,8.21
2022-11-14T19:07:52.809Z,8.13
2022-11-14T19:10:38.161Z,8.13
2022-11-14T19:13:24.270Z,8.20
2022-11-14T19:16:10.806Z,8.20
2022-11-14T19:18:56.023Z,8.26
2022-11-14T19:21:41.831Z,8.25
2022-11-14T19:24:26.696Z,8.32
2022-11-14T19:27:12.940Z,8.35
2022-11-14T19:29:58.042Z,8.41
2022-11-14T19:32:43.300Z,8.43
2022-11-14T19:35:28.444Z,8.51
2022-11-14T19:38:13.751Z,8.53
2022-11-14T19:41:04.402Z,8.51
2022-11-14T19:43:50.180Z,8.52
2022-11-14T19:46:36.825Z,8.55
2022-11-14T19:49:22.346Z,8.55
2022-11-14T19:52:08.363Z,8.54
2022-11-14T19:54:54.379Z,8.61
2022-11-14T19:57:39.620Z,8.61
2022-11-14T20:00:25.751Z,8.65
2022-11-14T20:03:11.815Z,8.73
2022-11-14T20:05:57.564Z,8.80
2022-11-14T20:08:42.520Z,8.88
2022-11-14T20:11:28.999Z,8.92
2022-11-14T20:14:14.450Z,8.92
2022-11-14T20:16:59.676Z,8.93
2022-11-14T20:19:45.018Z,8.99
2022-11-14T20:22:30.292Z,9.06
2022-11-14T20:25:16.988Z,9.09
2022-11-14T20:28:02.316Z,9.09
2022-11-14T20:30:47.361Z,9.12
2022-11-14T20:33:37.218Z,9.12
2022-11-14T20:36:24.614Z,9.15
2022-11-14T20:39:09.976Z,9.17
2022-11-14T20:41:55.195Z,9.19
2022-11-14T20:44:40.564Z,9.19
2022-11-14T20:47:27.459Z,9.22
2022-11-14T20:50:13.549Z,9.27
2022-11-14T20:52:58.737Z,9.29
2022-11-14T20:55:44.007Z,9.28
2022-11-14T20:58:29.228Z,9.30
2022-11-14T21:01:15.918Z,9.36
2022-11-14T21:04:01.293Z,9.44
2022-11-14T21:06:46.972Z,9.47
2022-11-14T21:09:32.276Z,9.47
2022-11-14T21:12:17.480Z,9.51
2022-11-14T21:15:02.727Z,9.57
2022-11-14T21:17:47.976Z,9.58
2022-11-14T21:20:33.335Z,9.58
2022-11-14T21:23:18.984Z,9.61
2022-11-14T21:26:11.429Z,9.68
2022-11-14T21:28:58.767Z,9.69
2022-11-14T21:31:45.750Z,9.69
2022-11-14T21:34:30.935Z,9.67
2022-11-14T21:37:16.123Z,9.57
2022-11-14T21:40:01.341Z,9.50
2022-11-14T21:42:46.413Z,9.41
2022-11-14T21:45:31.427Z,9.41
2022-11-14T21:48:16.700Z,9.42
2022-11-14T21:51:12.472Z,9.46
2022-11-14T21:53:58.821Z,9.48
2022-11-14T21:56:44.056Z,9.52
2022-11-14T21:59:30.716Z,9.59
2022-11-14T22:02:34.349Z,9.64
2022-11-14T22:05:19.501Z,9.70
2022-11-14T22:08:04.929Z,9.71
2022-11-14T22:10:50.099Z,9.77
2022-11-14T22:13:35.330Z,9.76
2022-11-14T22:16:21.038Z,9.79
2022-11-14T22:19:06.818Z,9.80
2022-11-14T22:21:51.904Z,9.80
2022-11-14T22:24:37.243Z,9.81
2022-11-14T22:27:22.530Z,9.79
2022-11-14T22:30:08.286Z,9.75
2022-11-14T22:32:53.520Z,9.71
2022-11-14T22:35:38.747Z,9.76
2022-11-14T22:38:23.881Z,9.71
2022-11-14T22:41:14.263Z,9.72
2022-11-14T22:43:59.611Z,9.78
2022-11-14T22:46:44.521Z,9.81
2022-11-14T22:49:29.859Z,9.77
2022-11-14T22:52:14.988Z,9.82
2022-11-14T22:55:00.314Z,9.87
2022-11-14T22:57:45.513Z,10.02
2022-11-14T23:00:30.790Z,10.06
2022-11-14T23:03:20.497Z,10.05
2022-11-14T23:06:09.838Z,10.09
2022-11-14T23:08:55.194Z,10.07
2022-11-14T23:11:40.769Z,10.10
2022-11-14T23:14:25.891Z,10.08
2022-11-14T23:17:10.994Z,10.07
2022-11-14T23:19:56.457Z,10.04
2022-11-14T23:22:41.735Z,9.99
2022-11-14T23:25:27.184Z,9.95
2022-11-14T23:28:12.440Z,9.85
2022-11-14T23:30:58.941Z,9.81
2022-11-14T23:33:44.141Z,9.76
2022-11-14T23:36:29.408Z,9.74
2022-11-14T23:39:14.819Z,9.72
2022-11-14T23:42:00.348Z,9.68
2022-11-14T23:44:45.331Z,9.63
2022-11-14T23:47:30.270Z,9.63
2022-11-14T23:50:15.585Z,9.61
2022-11-14T23:53:00.615Z,9.66
2022-11-14T23:56:00.832Z,9.73
2022-11-14T23:58:46.178Z,9.80
